createdAt,value
2017-08-18T00:01:05.613Z,17.40
2017-08-18T00:03:39.024Z,17.40
2017-08-18T00:06:08.236Z,17.30
2017-08-18T00:08:38.549Z,17.30
2017-08-18T00:11:09.145Z,17.20
2017-08-18T00:13:39.208Z,17.20
2017-08-18T00:16:08.480Z,17.10
2017-08-18T00:18:37.683Z,17.10
2017-08-18T00:21:06.909Z,17.20
2017-08-18T00:23:36.863Z,17.20
2017-08-18T00:26:07.586Z,17.20
2017-08-18T00:28:36.739Z,17.20
2017-08-18T00:31:52.993Z,17.10
2017-08-18T00:34:21.954Z,17.10
2017-08-18T00:36:50.866Z,17.10
2017-08-18T00:39:19.981Z,17.10
2017-08-18T00:41:48.940Z,17.20
2017-08-18T00:44:17.833Z,17.20
2017-08-18T00:46:46.739Z,17.20
2017-08-18T00:49:15.710Z,17.30
2017-08-18T00:51:44.639Z,17.30
2017-08-18T00:54:13.631Z,17.30
2017-08-18T00:56:42.560Z,17.20
2017-08-18T00:59:11.579Z,17.20
2017-08-18T01:01:40.520Z,17.10
2017-08-18T01:04:09.485Z,17.20
2017-08-18T01:06:38.598Z,17.10
2017-08-18T01:09:07.518Z,17.20
2017-08-18T01:11:36.622Z,17.10
2017-08-18T01:14:05.563Z,17.10
2017-08-18T01:16:34.467Z,17.10
2017-08-18T01:19:03.359Z,17.20
2017-08-18T01:21:32.353Z,17.10
2017-08-18T01:24:01.335Z,17.20
2017-08-18T01:26:30.324Z,17.20
2017-08-18T01:28:59.227Z,17.10
2017-08-18T01:31:28.128Z,17.10
2017-08-18T01:33:56.992Z,17.10
2017-08-18T01:36:25.922Z,17.10
2017-08-18T01:38:54.826Z,17.10
2017-08-18T01:41:24.067Z,17.10
2017-08-18T01:43:52.929Z,17.10
2017-08-18T01:46:21.828Z,17.20
2017-08-18T01:48:50.730Z,17.20
2017-08-18T01:51:19.686Z,17.20
2017-08-18T01:53:48.596Z,17.20
2017-08-18T01:56:17.467Z,17.30
2017-08-18T01:58:46.326Z,17.30
2017-08-18T02:01:15.307Z,17.20
2017-08-18T02:03:44.260Z,17.20
2017-08-18T02:06:13.147Z,17.20
2017-08-18T02:11:20.096Z,17.10
2017-08-18T02:13:49.599Z,17.10
2017-08-18T02:16:18.475Z,17.00
2017-08-18T02:18:47.382Z,17.00
2017-08-18T02:21:16.274Z,16.90
2017-08-18T02:23:45.165Z,16.90
2017-08-18T02:26:14.198Z,16.90
2017-08-18T02:28:43.080Z,16.90
2017-08-18T02:31:12.056Z,16.90
2017-08-18T02:33:40.995Z,16.80
2017-08-18T02:36:09.968Z,16.80
2017-08-18T02:38:38.829Z,16.80
2017-08-18T02:41:07.687Z,16.70
2017-08-18T02:43:36.952Z,16.70
2017-08-18T02:46:05.858Z,16.80
2017-08-18T02:48:34.742Z,16.70
2017-08-18T02:51:03.718Z,16.70
2017-08-18T02:54:51.965Z,16.70
2017-08-18T02:57:21.201Z,16.70
2017-08-18T02:59:50.135Z,16.60
2017-08-18T03:02:19.131Z,16.60
2017-08-18T03:04:48.019Z,16.70
2017-08-18T03:07:16.915Z,16.60
2017-08-18T03:09:45.874Z,16.60
2017-08-18T03:12:14.782Z,16.60
2017-08-18T03:14:43.694Z,16.60
2017-08-18T03:17:12.615Z,16.60
2017-08-18T03:19:41.553Z,16.60
2017-08-18T03:22:10.489Z,16.60
2017-08-18T03:24:39.405Z,16.60
2017-08-18T03:27:08.354Z,16.60
2017-08-18T03:29:37.252Z,16.70
2017-08-18T03:32:06.139Z,16.80
2017-08-18T03:34:35.023Z,16.80
2017-08-18T03:37:03.971Z,16.80
2017-08-18T03:39:32.909Z,16.80
2017-08-18T03:42:01.782Z,16.90
2017-08-18T03:44:30.697Z,16.90
2017-08-18T03:46:59.652Z,16.90
2017-08-18T03:49:28.567Z,17.00
2017-08-18T03:51:57.510Z,17.10
2017-08-18T03:54:26.419Z,17.10
2017-08-18T03:56:55.305Z,17.10
2017-08-18T03:59:24.225Z,17.10
2017-08-18T04:01:53.169Z,17.20
2017-08-18T04:04:22.084Z,17.20
2017-08-18T04:06:51.058Z,17.30
2017-08-18T04:09:19.959Z,17.30
2017-08-18T04:11:48.901Z,17.40
2017-08-18T04:14:17.805Z,17.40
2017-08-18T04:16:49.825Z,17.40
2017-08-18T04:19:18.950Z,17.50
2017-08-18T04:21:47.862Z,17.60
2017-08-18T04:24:16.743Z,17.60
2017-08-18T04:26:45.708Z,17.60
2017-08-18T04:29:14.739Z,17.60
2017-08-18T04:31:43.680Z,17.60
2017-08-18T04:34:12.626Z,17.70
2017-08-18T04:36:41.551Z,17.70
2017-08-18T04:39:10.574Z,17.70
2017-08-18T04:41:39.458Z,17.70
2017-08-18T04:44:08.410Z,17.70
2017-08-18T04:46:37.359Z,17.80
2017-08-18T04:49:06.251Z,17.80
2017-08-18T04:51:35.127Z,17.80
2017-08-18T04:54:04.063Z,17.90
2017-08-18T04:56:33.025Z,17.90
2017-08-18T04:59:01.972Z,17.90
2017-08-18T05:01:30.960Z,17.90
2017-08-18T05:04:00.431Z,18.00
2017-08-18T05:06:30.079Z,18.00
2017-08-18T05:08:59.051Z,18.00
2017-08-18T05:11:27.951Z,18.10
2017-08-18T05:13:56.842Z,18.10
2017-08-18T05:16:25.767Z,18.10
2017-08-18T05:18:54.935Z,18.10
2017-08-18T05:21:23.891Z,18.10
2017-08-18T05:23:52.967Z,18.10
2017-08-18T05:26:21.909Z,18.10
2017-08-18T05:28:50.895Z,18.10
2017-08-18T05:31:27.625Z,18.10
2017-08-18T05:33:56.574Z,18.10
2017-08-18T05:36:25.543Z,18.20
2017-08-18T05:38:54.494Z,18.20
2017-08-18T05:41:23.394Z,18.30
2017-08-18T05:43:52.381Z,18.40
2017-08-18T05:46:21.396Z,18.40
2017-08-18T05:48:50.415Z,18.50
2017-08-18T05:51:19.453Z,18.50
2017-08-18T05:53:48.399Z,18.60
2017-08-18T05:56:27.430Z,18.60
2017-08-18T05:58:56.942Z,18.80
2017-08-18T06:03:32.705Z,18.90
2017-08-18T06:06:01.683Z,18.90
2017-08-18T06:08:30.988Z,19.10
2017-08-18T06:10:59.906Z,19.30
2017-08-18T06:13:28.863Z,19.30
2017-08-18T06:15:57.796Z,19.20
2017-08-18T06:18:26.847Z,19.20
2017-08-18T06:20:56.047Z,19.10
2017-08-18T06:23:24.979Z,19.00
2017-08-18T06:25:53.954Z,18.90
2017-08-18T06:28:22.953Z,18.90
2017-08-18T06:30:51.818Z,18.80
2017-08-18T06:33:20.763Z,18.80
2017-08-18T06:35:49.782Z,18.80
2017-08-18T06:38:18.713Z,18.80
2017-08-18T06:40:47.687Z,18.70
2017-08-18T06:43:16.680Z,18.80
2017-08-18T06:45:45.586Z,18.80
2017-08-18T06:48:14.595Z,18.80
2017-08-18T06:50:43.562Z,18.80
2017-08-18T06:53:12.653Z,18.90
2017-08-18T06:55:41.649Z,18.90
2017-08-18T06:58:13.005Z,18.80
2017-08-18T07:00:43.687Z,18.90
2017-08-18T07:03:12.967Z,18.80
2017-08-18T07:05:41.936Z,18.80
2017-08-18T07:08:10.924Z,18.80
2017-08-18T07:10:39.889Z,18.70
2017-08-18T07:13:08.911Z,18.70
2017-08-18T07:15:37.944Z,18.60
2017-08-18T07:18:06.901Z,18.50
2017-08-18T07:20:35.878Z,18.50
2017-08-18T07:23:11.990Z,18.50
2017-08-18T07:25:41.373Z,18.50
2017-08-18T07:28:10.552Z,18.50
2017-08-18T07:30:39.491Z,18.40
2017-08-18T07:33:08.661Z,18.50
2017-08-18T07:35:37.673Z,18.50
2017-08-18T07:38:06.662Z,18.50
2017-08-18T07:40:35.641Z,18.60
2017-08-18T07:43:05.374Z,18.60
2017-08-18T07:45:34.316Z,18.60
2017-08-18T07:48:03.402Z,18.50
2017-08-18T07:50:32.408Z,18.50
2017-08-18T07:53:01.412Z,18.60
2017-08-18T07:55:30.377Z,18.60
2017-08-18T07:57:59.318Z,18.60
2017-08-18T08:00:28.408Z,18.80
2017-08-18T08:02:57.363Z,18.80
2017-08-18T08:05:26.333Z,18.80
2017-08-18T08:07:55.284Z,18.90
2017-08-18T08:10:24.396Z,18.90
2017-08-18T08:12:53.403Z,18.90
2017-08-18T08:15:22.416Z,18.90
2017-08-18T08:17:51.409Z,18.90
2017-08-18T08:20:20.374Z,19.00
2017-08-18T08:22:49.391Z,19.10
2017-08-18T08:25:18.643Z,19.30
2017-08-18T08:27:48.016Z,19.50
2017-08-18T08:30:17.286Z,19.70
2017-08-18T08:32:48.426Z,19.80
2017-08-18T08:35:18.646Z,19.70
2017-08-18T08:37:47.891Z,19.60
2017-08-18T08:40:18.169Z,19.50
2017-08-18T08:43:01.928Z,19.40
2017-08-18T08:45:32.165Z,19.50
2017-08-18T08:48:01.887Z,19.60
2017-08-18T08:50:31.462Z,19.70
2017-08-18T08:53:00.649Z,19.90
2017-08-18T08:55:30.940Z,19.90
2017-08-18T08:58:00.586Z,20.00
2017-08-18T09:00:30.591Z,20.00
2017-08-18T09:02:59.650Z,20.00
2017-08-18T09:05:29.165Z,20.00
2017-08-18T09:07:58.251Z,20.00
2017-08-18T09:10:28.440Z,20.00
2017-08-18T09:12:57.539Z,20.10
2017-08-18T09:15:32.523Z,20.10
2017-08-18T09:18:01.624Z,20.10
2017-08-18T09:20:30.613Z,20.00
2017-08-18T09:23:05.081Z,20.00
2017-08-18T09:25:34.075Z,20.10
2017-08-18T09:28:03.176Z,20.20
2017-08-18T09:30:32.219Z,20.10
2017-08-18T09:33:01.296Z,20.10
2017-08-18T09:35:30.280Z,20.00
2017-08-18T09:37:59.305Z,20.00
2017-08-18T09:40:28.266Z,20.00
2017-08-18T09:43:01.169Z,20.10
2017-08-18T09:45:30.173Z,20.10
2017-08-18T09:48:08.001Z,20.00
2017-08-18T09:52:53.804Z,20.00
2017-08-18T09:59:40.757Z,20.10
2017-08-18T10:02:09.782Z,20.20
2017-08-18T10:04:38.811Z,20.20
2017-08-18T10:07:07.817Z,20.30
2017-08-18T10:09:38.317Z,20.10
2017-08-18T10:12:07.677Z,19.90
2017-08-18T10:14:36.668Z,19.70
2017-08-18T10:17:05.661Z,19.50
2017-08-18T10:19:35.342Z,19.40
2017-08-18T10:22:04.425Z,19.30
2017-08-18T10:24:34.086Z,19.20
2017-08-18T10:27:03.176Z,19.10
2017-08-18T10:29:33.297Z,19.10
2017-08-18T10:32:02.369Z,19.00
2017-08-18T10:34:31.447Z,19.00
2017-08-18T10:37:00.562Z,19.00
2017-08-18T10:39:32.956Z,18.90
2017-08-18T10:42:02.116Z,18.90
2017-08-18T10:44:31.159Z,18.90
2017-08-18T10:47:00.251Z,18.90
2017-08-18T10:49:29.309Z,19.00
2017-08-18T10:51:58.245Z,19.00
2017-08-18T10:54:27.269Z,19.10
2017-08-18T10:56:56.279Z,19.30
2017-08-18T10:59:25.331Z,19.50
2017-08-18T11:01:54.985Z,19.50
2017-08-18T11:04:24.033Z,19.60
2017-08-18T11:07:02.869Z,19.60
2017-08-18T11:09:31.901Z,19.70
2017-08-18T11:12:00.927Z,19.70
2017-08-18T11:14:29.935Z,19.80
2017-08-18T11:16:58.942Z,19.80
2017-08-18T11:19:27.973Z,19.80
2017-08-18T11:21:57.741Z,20.00
2017-08-18T11:24:26.788Z,20.30
2017-08-18T11:26:55.886Z,20.60
2017-08-18T11:29:25.514Z,21.10
2017-08-18T11:31:54.582Z,21.60
2017-08-18T11:34:30.314Z,22.00
2017-08-18T11:36:59.392Z,22.40
2017-08-18T11:39:28.412Z,23.10
2017-08-18T11:41:57.517Z,23.10
2017-08-18T11:44:26.481Z,23.30
2017-08-18T11:46:55.556Z,23.20
2017-08-18T11:49:24.551Z,23.00
2017-08-18T11:51:53.621Z,22.80
2017-08-18T11:54:22.630Z,22.70
2017-08-18T11:56:51.610Z,22.80
2017-08-18T11:59:20.572Z,22.80
2017-08-18T12:01:49.630Z,22.90
2017-08-18T12:04:18.667Z,23.10
2017-08-18T12:06:47.791Z,22.50
2017-08-18T12:09:16.843Z,22.30
2017-08-18T12:11:45.998Z,22.10
2017-08-18T12:14:20.757Z,22.00
2017-08-18T12:16:49.799Z,22.00
2017-08-18T12:19:18.875Z,22.10
2017-08-18T12:21:52.092Z,22.30
2017-08-18T12:24:21.197Z,22.40
2017-08-18T12:29:28.967Z,21.90
2017-08-18T12:31:57.928Z,21.90
2017-08-18T12:34:27.028Z,22.20
2017-08-18T12:36:56.083Z,22.30
2017-08-18T12:39:26.137Z,22.70
2017-08-18T12:41:55.164Z,22.90
2017-08-18T12:44:24.321Z,23.30
2017-08-18T12:46:53.334Z,23.50
2017-08-18T12:49:22.330Z,23.70
2017-08-18T12:51:51.438Z,23.80
2017-08-18T12:54:20.479Z,23.60
2017-08-18T12:56:49.451Z,23.40
2017-08-18T12:59:18.856Z,23.20
2017-08-18T13:01:48.013Z,23.10
2017-08-18T13:04:17.028Z,23.00
2017-08-18T13:06:46.312Z,22.90
2017-08-18T13:09:17.130Z,22.70
2017-08-18T13:11:47.208Z,22.50
2017-08-18T13:14:18.202Z,22.50
2017-08-18T13:16:47.890Z,22.50
2017-08-18T13:19:17.527Z,22.40
2017-08-18T13:21:47.090Z,22.40
2017-08-18T13:24:19.628Z,22.10
2017-08-18T13:26:49.161Z,22.10
2017-08-18T13:29:19.888Z,22.20
2017-08-18T13:31:51.783Z,22.30
2017-08-18T13:34:21.224Z,22.40
2017-08-18T13:36:51.168Z,22.50
2017-08-18T13:39:20.181Z,22.60
2017-08-18T13:41:49.316Z,22.50
2017-08-18T13:44:18.320Z,22.50
2017-08-18T13:46:47.903Z,22.40
2017-08-18T13:49:17.728Z,22.30
2017-08-18T13:51:47.824Z,22.20
2017-08-18T13:54:17.159Z,22.10
2017-08-18T13:56:47.057Z,22.00
2017-08-18T13:59:16.266Z,22.00
2017-08-18T14:01:45.489Z,21.90
2017-08-18T14:04:14.601Z,21.70
2017-08-18T14:06:43.710Z,21.50
2017-08-18T14:09:12.762Z,21.30
2017-08-18T14:11:41.828Z,21.20
2017-08-18T14:14:11.020Z,21.20
2017-08-18T14:16:45.464Z,21.10
2017-08-18T14:19:15.459Z,21.00
2017-08-18T14:21:45.632Z,20.80
2017-08-18T14:24:14.707Z,20.70
2017-08-18T14:27:47.827Z,20.40
2017-08-18T14:30:18.118Z,20.20
2017-08-18T14:32:47.357Z,20.00
2017-08-18T14:35:16.460Z,19.90
2017-08-18T14:37:45.663Z,19.90
2017-08-18T14:40:14.680Z,19.80
2017-08-18T14:42:44.086Z,19.80
2017-08-18T14:45:13.215Z,19.60
2017-08-18T14:47:42.678Z,19.40
2017-08-18T14:50:11.679Z,19.40
2017-08-18T14:52:40.835Z,19.40
2017-08-18T14:55:10.938Z,19.40
2017-08-18T14:57:40.971Z,19.40
2017-08-18T15:00:10.792Z,19.30
2017-08-18T15:02:41.083Z,19.20
2017-08-18T15:05:11.900Z,19.20
2017-08-18T15:07:42.166Z,19.10
2017-08-18T15:10:13.772Z,19.10
2017-08-18T15:12:43.924Z,19.00
2017-08-18T15:15:14.333Z,19.00
2017-08-18T15:17:43.403Z,19.10
2017-08-18T15:20:12.378Z,19.00
2017-08-18T15:22:41.426Z,19.00
2017-08-18T15:25:10.682Z,18.90
2017-08-18T15:27:39.855Z,18.90
2017-08-18T15:30:08.920Z,18.80
2017-08-18T15:32:39.609Z,18.80
2017-08-18T15:35:08.797Z,18.70
2017-08-18T15:37:38.302Z,18.60
2017-08-18T15:40:08.855Z,18.50
2017-08-18T15:42:39.201Z,18.40
2017-08-18T15:45:08.433Z,18.40
2017-08-18T15:47:37.601Z,18.30
2017-08-18T15:50:06.636Z,18.20
2017-08-18T15:52:37.101Z,18.10
2017-08-18T15:57:45.518Z,18.00
2017-08-18T16:00:14.559Z,18.00
2017-08-18T16:02:43.612Z,18.00
2017-08-18T16:05:12.677Z,18.00
2017-08-18T16:07:42.352Z,18.00
2017-08-18T16:10:12.138Z,17.90
2017-08-18T16:12:41.170Z,18.00
2017-08-18T16:15:10.284Z,18.00
2017-08-18T16:17:39.553Z,18.00
2017-08-18T16:20:08.635Z,18.00
2017-08-18T16:22:38.134Z,18.10
2017-08-18T16:25:08.287Z,18.10
2017-08-18T16:27:37.752Z,18.10
2017-08-18T16:30:07.170Z,18.10
2017-08-18T16:32:37.778Z,18.00
2017-08-18T16:35:07.032Z,18.00
2017-08-18T16:37:36.911Z,18.00
2017-08-18T16:40:06.198Z,17.90
2017-08-18T16:42:35.552Z,17.90
2017-08-18T16:45:04.736Z,17.90
2017-08-18T16:47:34.556Z,17.90
2017-08-18T16:50:03.771Z,17.80
2017-08-18T16:52:35.384Z,17.80
2017-08-18T16:55:07.356Z,17.80
2017-08-18T16:57:37.334Z,17.90
2017-08-18T17:00:06.516Z,17.80
2017-08-18T17:02:35.572Z,17.70
2017-08-18T17:05:04.689Z,17.70
2017-08-18T17:07:37.484Z,17.70
2017-08-18T17:10:06.817Z,17.70
2017-08-18T17:12:35.901Z,17.70
2017-08-18T17:15:05.270Z,17.70
2017-08-18T17:17:35.926Z,17.70
2017-08-18T17:20:05.084Z,17.70
2017-08-18T17:22:34.155Z,17.70
2017-08-18T17:25:03.246Z,17.70
2017-08-18T17:27:33.213Z,17.80
2017-08-18T17:30:03.194Z,17.70
2017-08-18T17:32:32.231Z,17.80
2017-08-18T17:35:02.290Z,17.80
2017-08-18T17:37:31.407Z,17.80
2017-08-18T17:40:01.455Z,17.80
2017-08-18T17:42:30.497Z,17.70
2017-08-18T17:44:59.631Z,17.70
2017-08-18T17:47:28.714Z,17.60
2017-08-18T17:49:57.854Z,17.60
2017-08-18T17:52:27.960Z,17.50
2017-08-18T17:54:57.108Z,17.50
2017-08-18T17:57:26.921Z,17.40
2017-08-18T17:59:57.098Z,17.50
2017-08-18T18:02:27.127Z,17.50
2017-08-18T18:04:56.373Z,17.50
2017-08-18T18:07:25.748Z,17.40
2017-08-18T18:09:55.527Z,17.40
2017-08-18T18:12:24.858Z,17.40
2017-08-18T18:14:53.880Z,17.30
2017-08-18T18:17:23.726Z,17.20
2017-08-18T18:19:52.851Z,17.20
2017-08-18T18:22:21.875Z,17.20
2017-08-18T18:24:51.887Z,17.10
2017-08-18T18:27:26.897Z,17.10
2017-08-18T18:29:56.701Z,17.00
2017-08-18T18:32:25.740Z,16.90
2017-08-18T18:34:54.916Z,16.90
2017-08-18T18:37:24.148Z,16.90
2017-08-18T18:39:53.280Z,16.90
2017-08-18T18:42:23.040Z,16.80
2017-08-18T18:44:52.132Z,16.80
2017-08-18T18:47:21.221Z,16.80
2017-08-18T18:49:50.634Z,16.80
2017-08-18T18:52:19.662Z,16.80
2017-08-18T18:54:49.241Z,16.70
2017-08-18T18:57:18.253Z,16.70
2017-08-18T18:59:47.337Z,16.50
2017-08-18T19:02:16.387Z,16.60
2017-08-18T19:04:45.468Z,16.50
2017-08-18T19:07:15.109Z,16.60
2017-08-18T19:09:44.164Z,16.60
2017-08-18T19:12:19.444Z,16.60
2017-08-18T19:14:48.858Z,16.60
2017-08-18T19:17:17.915Z,16.50
2017-08-18T19:19:47.058Z,16.50
2017-08-18T19:22:16.135Z,16.50
2017-08-18T19:24:45.352Z,16.50
2017-08-18T19:27:14.723Z,16.40
2017-08-18T19:29:44.002Z,16.50
2017-08-18T19:32:14.495Z,16.50
2017-08-18T19:34:43.916Z,16.40
2017-08-18T19:37:13.166Z,16.40
2017-08-18T19:39:42.621Z,16.40
2017-08-18T19:42:11.836Z,16.50
2017-08-18T19:44:41.079Z,16.50
2017-08-18T19:47:11.283Z,16.40
2017-08-18T19:49:41.332Z,16.40
2017-08-18T19:52:16.779Z,16.40
2017-08-18T19:54:45.849Z,16.50
2017-08-18T19:57:14.902Z,16.40
2017-08-18T19:59:43.966Z,16.40
2017-08-18T20:02:13.062Z,16.40
2017-08-18T20:04:42.172Z,16.40
2017-08-18T20:07:12.080Z,16.30
2017-08-18T20:09:41.244Z,16.30
2017-08-18T20:12:10.237Z,16.20
2017-08-18T20:14:39.412Z,16.20
2017-08-18T20:17:08.622Z,16.10
2017-08-18T20:19:37.759Z,16.00
2017-08-18T20:22:06.847Z,16.00
2017-08-18T20:24:35.938Z,15.90
2017-08-18T20:27:04.970Z,15.90
2017-08-18T20:29:34.125Z,15.80
2017-08-18T20:32:03.252Z,15.70
2017-08-18T20:34:32.269Z,15.70
2017-08-18T20:37:01.359Z,15.70
2017-08-18T20:39:30.520Z,15.70
2017-08-18T20:42:00.772Z,15.70
2017-08-18T20:44:30.137Z,15.70
2017-08-18T20:46:59.798Z,15.70
2017-08-18T20:49:29.254Z,15.70
2017-08-18T20:51:58.513Z,15.60
2017-08-18T20:54:28.157Z,15.60
2017-08-18T20:56:58.259Z,15.50
2017-08-18T20:59:28.171Z,15.50
2017-08-18T21:01:57.452Z,15.40
2017-08-18T21:04:26.991Z,15.40
2017-08-18T21:06:56.317Z,15.30
2017-08-18T21:09:25.650Z,15.40
